Map

Track Data

SID SEASON NUMBER BASIN SUBBASIN NAME ISO_TIME NATURE LAT LON WMO_WIND WMO_PRES WMO_AGENCY TRACK_TYPE DIST2LAND LANDFALL IFLAG USA_AGENCY USA_ATCF_ID USA_LAT USA_LON USA_RECORD USA_STATUS USA_WIND USA_PRES USA_SSHS USA_R34_NE USA_R34_SE USA_R34_SW USA_R34_NW USA_R50_NE USA_R50_SE USA_R50_SW USA_R50_NW USA_R64_NE USA_R64_SE USA_R64_SW USA_R64_NW USA_POCI USA_ROCI USA_RMW USA_EYE TOKYO_LAT TOKYO_LON TOKYO_GRADE TOKYO_WIND TOKYO_PRES TOKYO_R50_DIR TOKYO_R50_LONG TOKYO_R50_SHORT TOKYO_R30_DIR TOKYO_R30_LONG TOKYO_R30_SHORT TOKYO_LAND CMA_LAT CMA_LON CMA_CAT CMA_WIND CMA_PRES HKO_LAT HKO_LON HKO_CAT HKO_WIND HKO_PRES NEWDELHI_LAT NEWDELHI_LON NEWDELHI_GRADE NEWDELHI_WIND NEWDELHI_PRES NEWDELHI_CI NEWDELHI_DP NEWDELHI_POCI REUNION_LAT REUNION_LON REUNION_TYPE REUNION_WIND REUNION_PRES REUNION_TNUM REUNION_CI REUNION_RMW REUNION_R34_NE REUNION_R34_SE REUNION_R34_SW REUNION_R34_NW REUNION_R50_NE REUNION_R50_SE REUNION_R50_SW REUNION_R50_NW REUNION_R64_NE REUNION_R64_SE REUNION_R64_SW REUNION_R64_NW BOM_LAT BOM_LON BOM_TYPE BOM_WIND BOM_PRES BOM_TNUM BOM_CI BOM_RMW BOM_R34_NE BOM_R34_SE BOM_R34_SW BOM_R34_NW BOM_R50_NE BOM_R50_SE BOM_R50_SW BOM_R50_NW BOM_R64_NE BOM_R64_SE BOM_R64_SW BOM_R64_NW BOM_ROCI BOM_POCI BOM_EYE BOM_POS_METHOD BOM_PRES_METHOD NADI_LAT NADI_LON NADI_CAT NADI_WIND NADI_PRES WELLINGTON_LAT WELLINGTON_LON WELLINGTON_WIND WELLINGTON_PRES DS824_LAT DS824_LON DS824_STAGE DS824_WIND DS824_PRES TD9636_LAT TD9636_LON TD9636_STAGE TD9636_WIND TD9636_PRES TD9635_LAT TD9635_LON TD9635_WIND TD9635_PRES TD9635_ROCI NEUMANN_LAT NEUMANN_LON NEUMANN_CLASS NEUMANN_WIND NEUMANN_PRES MLC_LAT MLC_LON MLC_CLASS MLC_WIND MLC_PRES USA_GUST BOM_GUST BOM_GUST_PER REUNION_GUST REUNION_GUST_PER USA_SEAHGT USA_SEARAD_NE USA_SEARAD_SE USA_SEARAD_SW USA_SEARAD_NW STORM_SPEED STORM_DIR
1913022S12053 1913 10 SI MM NOT_NAMED 1913-01-22 06:00:00 NR -12.4000 52.7000 reunion main 311 300 _____O________ -1 -12.4000 52.7000 99 9.90000 2 248
1913022S12053 1913 10 SI MM NOT_NAMED 1913-01-22 09:00:00 NR -12.4333 52.6219 main 300 300 _____P________ -1 -12.4333 52.6219 99 2 251
1913022S12053 1913 10 SI MM NOT_NAMED 1913-01-22 12:00:00 NR -12.4502 52.5554 main 298 277 _____P____O___ -1 -12.4670 52.5405 99 -12.4000 52.6000 1 2 252
1913022S12053 1913 10 SI MM NOT_NAMED 1913-01-22 15:00:00 NR -12.4942 52.4267 main 277 266 _____P____P___ -1 -12.5014 52.4525 99 -12.4798 52.3751 1 3 251
1913022S12053 1913 10 SI MM NOT_NAMED 1913-01-22 18:00:00 NR -12.5459 52.2670 main 266 242 _____P____P___ -1 -12.5371 52.3547 99 -12.5577 52.1501 1 4 252
1913022S12053 1913 10 SI MM NOT_NAMED 1913-01-22 21:00:00 NR -12.6030 52.0845 main 242 219 _____P____P___ -1 -12.5744 52.2439 99 -12.6316 51.9251 1 4 253
1913022S12053 1913 10 SI MM NOT_NAMED 1913-01-23 00:00:00 TS -12.6617 51.8852 main 219 198 _____P___OO___ -1 -12.6138 52.1167 99 -12.7000 51.7000 TC 25 -12.7000 51.7000 1 4 254
1913022S12053 1913 10 SI MM NOT_NAMED 1913-01-23 03:00:00 TS -12.7167 51.6804 main 198 174 _____P___PP___ -1 -12.6555 51.9698 99 -12.7500 51.5125 TC 25 -12.7612 51.4750 1 4 255
1913022S12053 1913 10 SI MM NOT_NAMED 1913-01-23 06:00:00 TS -12.7691 51.4636 reunion main 174 142 _____O___OP___ -1 -12.7000 51.8000 99 9.90000 -12.8000 51.3000 TC 25 -12.8149 51.2500 1 5 257
1913022S12053 1913 10 SI MM NOT_NAMED 1913-01-23 09:00:00 TS -12.8195 51.2268 main 142 119 _____P___PP___ -1 -12.7473 51.6053 99 -12.8500 51.0500 TC 25 -12.8612 51.0250 1 5 258
1913022S12053 1913 10 SI MM NOT_NAMED 1913-01-23 12:00:00 TS -12.8652 50.9963 main 119 98 _____P___OO___ -1 -12.7957 51.3890 99 -12.9000 50.8000 TC 25 -12.9000 50.8000 1 4 258
1913022S12053 1913 10 SI MM NOT_NAMED 1913-01-23 15:00:00 TS -12.9136 50.7783 main 98 75 _____P___PP___ -1 -12.8432 51.1558 99 -12.9574 50.6000 TC 25 -12.9402 50.5791 1 4 258
1913022S12053 1913 10 SI MM NOT_NAMED 1913-01-23 18:00:00 TS -12.9535 50.5560 main 75 43 _____P___OP___ -1 -12.8880 50.9104 99 -13.0000 50.4000 TC 25 -12.9724 50.3575 1 5 262
1913022S12053 1913 10 SI MM NOT_NAMED 1913-01-23 21:00:00 TS -12.9763 50.3157 main 43 21 _____P___PP___ -1 -12.9280 50.6574 99 -13.0075 50.1575 TC 25 -12.9933 50.1322 1 5 266
1913022S12053 1913 10 SI MM NOT_NAMED 1913-01-24 00:00:00 TS -12.9871 50.0672 main 21 0 _____P___OO___ -1 -12.9612 50.4015 99 -13.0000 49.9000 TC 25 -13.0000 49.9000 1 5 268
1913022S12053 1913 10 SI MM NOT_NAMED 1913-01-24 03:00:00 TS -12.9942 49.8169 main 0 0 _____P___PP___ -1 -12.9859 50.1475 99 -13.0075 49.6500 TC 25 -12.9894 49.6531 1 5 270
1913022S12053 1913 10 SI MM NOT_NAMED 1913-01-24 06:00:00 TS -12.9883 49.5666 reunion main 0 0 _____O___OP___ -1 -13.0000 49.9000 99 9.90000 -13.0000 49.4000 TC 25 -12.9650 49.3999 1 5 274
1913022S12053 1913 10 SI MM NOT_NAMED 1913-01-24 09:00:00 TS -12.9571 49.3243 main 0 0 _____P___PP___ -1 -12.9808 49.6836 99 -12.9575 49.1425 TC 25 -12.9331 49.1468 1 5 279
1913022S12053 1913 10 SI MM NOT_NAMED 1913-01-24 12:00:00 TS -12.9163 49.0907 main 0 0 _____P___OO___ -1 -12.9489 49.4721 99 -12.9000 48.9000 TC 25 -12.9000 48.9000 1 4 281
1913022S12053 1913 10 SI MM NOT_NAMED 1913-01-24 15:00:00 TS -12.8704 48.8771 main 10 10 _____P___PP___ -1 -12.9099 49.2637 99 -12.8424 48.7000 TC 25 -12.8587 48.6677 1 4 282
1913022S12053 1913 10 SI MM NOT_NAMED 1913-01-24 18:00:00 TS -12.8297 48.6663 main 24 24 _____P___OP___ -1 -12.8693 49.0564 99 -12.8000 48.5000 TC 25 -12.8199 48.4424 1 4 279
1913022S12053 1913 10 SI MM NOT_NAMED 1913-01-24 21:00:00 TS -12.8046 48.4422 main 48 48 _____P___PP___ -1 -12.8326 48.8484 99 -12.7850 48.2575 TC 25 -12.7962 48.2208 1 4 274
1913022S12053 1913 10 SI MM NOT_NAMED 1913-01-25 00:00:00 TS -12.8017 48.2125 main 68 68 _____P___OO___ -1 -12.8051 48.6376 99 -12.8000 48.0000 TC 25 -12.8000 48.0000 1 5 268
1913022S12053 1913 10 SI MM NOT_NAMED 1913-01-25 03:00:00 TS -12.8232 47.9813 main 89 81 _____P___PP___ -1 -12.7925 48.4222 99 -12.8350 47.7425 TC 25 -12.8421 47.7791 1 5 261
1913022S12053 1913 10 SI MM NOT_NAMED 1913-01-25 06:00:00 TS -12.8708 47.7525 reunion main 81 81 _____O___OP___ -1 -12.8000 48.2000 99 9.90000 -12.9000 47.5000 TC 25 -12.9124 47.5575 1 5 254
1913022S12053 1913 10 SI MM NOT_NAMED 1913-01-25 09:00:00 TS -12.9485 47.5258 main 95 86 _____P___PP___ -1 -12.8516 47.9452 99 -12.9924 47.3000 TC 25 -13.0015 47.3322 1 5 249
1913022S12053 1913 10 SI MM NOT_NAMED 1913-01-25 12:00:00 TS -13.0410 47.2939 main 101 93 _____P___OO___ -1 -12.9229 47.6817 99 -13.1000 47.1000 TC 25 -13.1000 47.1000 1 5 248
1913022S12053 1913 10 SI MM NOT_NAMED 1913-01-25 15:00:00 TS -13.1364 47.0436 main 118 112 _____P___PP___ -1 -13.0091 47.4145 99 -13.2000 46.8575 TC 25 -13.2001 46.8588 1 5 248
1913022S12053 1913 10 SI MM NOT_NAMED 1913-01-25 18:00:00 TS -13.2223 46.8225 main 131 127 _____P___OP___ -1 -13.1056 47.1486 99 -13.3000 46.6000 TC 25 -13.3002 46.6101 1 4 248
1913022S12053 1913 10 SI MM NOT_NAMED 1913-01-25 21:00:00 TS -13.3039 46.6205 main 147 147 _____P___PP___ -1 -13.2076 46.8891 99 -13.4000 46.3475 TC 25 -13.4002 46.3564 1 4 247
1913022S12053 1913 10 SI MM NOT_NAMED 1913-01-26 00:00:00 TS -13.3736 46.4607 main 155 155 _____P___OO___ -1 -13.3104 46.6410 99 -13.5000 46.1000 TC 25 -13.5000 46.1000 1 2 243
1913022S12053 1913 10 SI MM NOT_NAMED 1913-01-26 03:00:00 NR -13.4094 46.4096 main 165 165 _____P________ -1 -13.4094 46.4096 99 TC 1 3 243
1913022S12053 1913 10 SI MM NOT_NAMED 1913-01-26 06:00:00 NR -13.5000 46.2000 reunion main 185 185 _____O________ -1 -13.5000 46.2000 99 9.90000 1 4 246
1913022S12053 1913 10 SI MM NOT_NAMED 1913-01-26 09:00:00 NR -13.5785 46.0159 main 202 202 _____P________ -1 -13.5785 46.0159 99 1 4 247
1913022S12053 1913 10 SI MM NOT_NAMED 1913-01-26 12:00:00 NR -13.6456 45.8554 main 209 208 _____P________ -1 -13.6456 45.8554 99 3 247
1913022S12053 1913 10 SI MM NOT_NAMED 1913-01-26 15:00:00 NR -13.7029 45.7152 main 213 213 _____P________ -1 -13.7029 45.7152 99 3 247
1913022S12053 1913 10 SI MM NOT_NAMED 1913-01-26 18:00:00 NR -13.7520 45.5919 main 208 208 _____P________ -1 -13.7520 45.5919 99 2 248
1913022S12053 1913 10 SI MM NOT_NAMED 1913-01-26 21:00:00 NR -13.7947 45.4821 main 214 214 _____P________ -1 -13.7947 45.4821 99 2 248
1913022S12053 1913 10 SI MM NOT_NAMED 1913-01-27 00:00:00 NR -13.8325 45.3824 main 220 218 _____P________ -1 -13.8325 45.3824 99 2 249
1913022S12053 1913 10 SI MM NOT_NAMED 1913-01-27 03:00:00 NR -13.8671 45.2895 main 218 218 _____P________ -1 -13.8671 45.2895 99 2 249
1913022S12053 1913 10 SI MM NOT_NAMED 1913-01-27 06:00:00 NR -13.9000 45.2000 reunion main 225 _____O________ -1 -13.9000 45.2000 99 9.90000 2 250

About IBTrACS Database

This database is a web-friendly format of International Best Track Archive for Climate Stewardship (IBTrACS), a global best track data archive curated by NOAA dating back to 1842.

Updated: 2021-11-26